Terminal Aerodrome Forecast
Issued by NWS Flagstaff, AZ

Home | Current Version | Previous Version | Text Only | Print | Product List | Glossary On
Versions: 1 2 3 4 5 6 7 8 9 10 11 12 13 14 15 16 17 18 19 20 21 22
000
FTUS45 KFGZ 260118 AAA
TAFFLG
TAF AMD
KFLG 260118Z 2601/2624 21010KT P6SM SCT060 SCT090
     FM260200 VRB03KT P6SM SCT060
     FM261700 23010KT P6SM FEW080 SCT250=

USA.gov is the U.S. government's official web portal to all federal, state and local government web resources and services.